Time;durP1;ratioP1;P1;durP2;ratioP2;P2;SDS_P1;SDS_P2;PMS_P1;PMS_P2;Temp;Humidity;BMP_temperature;BMP_pressure;BME280_temperature;BME280_humidity;BME280_pressure;Samples;Min_cycle;Max_cycle;Signal;HPM_P1;HPM_P2
2023/10/27 00:00:30;;;;;;;0.22;0.22;;;;;;;9.22;100.00;99066.84;5095494;28;20020;-56
2023/10/27 00:02:55;;;;;;;0.20;0.20;;;;;;;9.24;100.00;99077.97;5095637;28;20475;-56
2023/10/27 00:05:21;;;;;;;0.20;0.20;;;;;;;9.23;100.00;99072.00;5095694;28;20024;-56
2023/10/27 00:07:46;;;;;;;0.30;0.30;;;;;;;9.31;100.00;99078.88;5094756;28;20031;-56
2023/10/27 00:10:13;;;;;;;0.20;0.20;;;;;;;9.29;100.00;99080.59;5095749;28;20016;-56
2023/10/27 00:12:38;;;;;;;0.20;0.20;;;;;;;9.29;100.00;99070.31;5095396;28;20376;-56
2023/10/27 00:15:05;;;;;;;0.30;0.30;;;;;;;9.27;100.00;99078.03;5094696;28;20476;-56
2023/10/27 00:17:30;;;;;;;0.20;0.20;;;;;;;9.29;100.00;99080.59;5095704;28;20030;-56
2023/10/27 00:19:55;;;;;;;0.28;0.28;;;;;;;9.32;100.00;99070.31;5095367;28;20028;-56
2023/10/27 00:22:20;;;;;;;0.30;0.30;;;;;;;9.29;100.00;99075.44;5094834;28;20027;-55
2023/10/27 00:24:46;;;;;;;0.20;0.20;;;;;;;9.28;100.00;99064.28;5095193;28;20024;-56
2023/10/27 00:27:11;;;;;;;0.25;0.25;;;;;;;9.29;100.00;99070.31;5094548;28;20038;-56
2023/10/27 00:29:36;;;;;;;0.20;0.20;;;;;;;9.30;100.00;99064.31;5094901;28;20028;-56
2023/10/27 00:32:02;;;;;;;0.20;0.20;;;;;;;9.29;100.00;99054.88;5095519;28;20464;-56
2023/10/27 00:34:27;;;;;;;0.30;0.30;;;;;;;9.29;100.00;99058.31;5094367;28;20043;-55
2023/10/27 00:36:52;;;;;;;0.30;0.30;;;;;;;9.31;100.00;99053.16;5094998;28;20031;-55
2023/10/27 00:39:18;;;;;;;0.20;0.20;;;;;;;9.29;100.00;99052.31;5095048;28;20101;-55
2023/10/27 00:41:43;;;;;;;0.20;0.20;;;;;;;9.28;100.00;99050.59;5093857;28;20052;-55
2023/10/27 00:44:08;;;;;;;0.20;0.20;;;;;;;9.28;100.00;99045.44;5094969;28;20099;-56
2023/10/27 00:46:33;;;;;;;0.25;0.25;;;;;;;9.28;100.00;99053.16;5095040;28;20178;-56
2023/10/27 00:48:59;;;;;;;0.20;0.20;;;;;;;9.29;100.00;99042.03;5094101;28;20024;-55
2023/10/27 00:51:25;;;;;;;0.20;0.20;;;;;;;9.30;100.00;99041.19;5095009;28;20032;-56
2023/10/27 00:53:51;;;;;;;0.30;0.30;;;;;;;9.29;100.00;99047.19;5094597;28;20024;-56
2023/10/27 00:56:17;;;;;;;0.22;0.22;;;;;;;9.29;100.00;99045.44;5094066;28;20027;-56
2023/10/27 00:58:42;;;;;;;0.30;0.30;;;;;;;9.31;100.00;99045.44;5094394;28;20020;-56
2023/10/27 01:01:11;;;;;;;0.25;0.25;;;;;;;9.31;100.00;99048.91;5094910;28;20077;-56
2023/10/27 01:03:37;;;;;;;0.20;0.20;;;;;;;9.30;100.00;99047.19;5093547;28;20426;-56
2023/10/27 01:06:02;;;;;;;0.30;0.30;;;;;;;9.32;100.00;99042.03;5094701;28;20456;-55
2023/10/27 01:08:28;;;;;;;0.30;0.30;;;;;;;9.32;100.00;99044.59;5094808;28;20062;-56
2023/10/27 01:10:53;;;;;;;0.30;0.30;;;;;;;9.31;100.00;99037.75;5093057;28;20028;-56
2023/10/27 01:13:19;;;;;;;0.20;0.20;;;;;;;9.32;100.00;99040.34;5093517;28;20035;-55
2023/10/27 01:15:44;;;;;;;0.20;0.20;;;;;;;9.32;100.00;99039.47;5094310;28;20028;-56
2023/10/27 01:18:09;;;;;;;0.30;0.30;;;;;;;9.34;100.00;99035.19;5093843;28;20073;-56
2023/10/27 01:20:34;;;;;;;0.30;0.30;;;;;;;9.36;100.00;99041.19;5094000;28;20024;-55
2023/10/27 01:23:02;;;;;;;0.20;0.20;;;;;;;9.35;100.00;99036.94;5094363;28;20045;-56
2023/10/27 01:25:28;;;;;;;0.30;0.30;;;;;;;9.34;100.00;99036.06;5093615;28;20099;-56
2023/10/27 01:27:53;;;;;;;0.30;0.30;;;;;;;9.35;100.00;99036.94;5093831;28;20114;-55
2023/10/27 01:30:18;;;;;;;0.20;0.20;;;;;;;9.34;100.00;99035.19;5094379;28;20023;-56
2023/10/27 01:32:45;;;;;;;0.20;0.20;;;;;;;9.35;100.00;99039.50;5093184;28;20426;-56
2023/10/27 01:35:10;;;;;;;0.20;0.20;;;;;;;9.34;100.00;99038.63;5094251;28;20020;-56
2023/10/27 01:37:36;;;;;;;0.20;0.20;;;;;;;9.34;100.00;99032.63;5092874;28;20114;-56
2023/10/27 01:40:05;;;;;;;0.20;0.20;;;;;;;9.35;100.00;99029.22;5094014;28;20032;-56
2023/10/27 01:42:32;;;;;;;0.30;0.30;;;;;;;9.35;100.00;99029.22;5093659;28;20078;-56
2023/10/27 01:44:57;;;;;;;0.20;0.20;;;;;;;9.35;100.00;99018.94;5093037;28;20027;-56
2023/10/27 01:47:22;;;;;;;0.20;0.20;;;;;;;9.35;100.00;99029.22;5093877;28;20395;-56
2023/10/27 01:49:48;;;;;;;0.20;0.20;;;;;;;9.36;100.00;99020.63;5093647;28;20030;-56
2023/10/27 01:52:13;;;;;;;0.20;0.20;;;;;;;9.35;100.00;99024.94;5093025;28;20020;-56
2023/10/27 01:54:38;;;;;;;0.20;0.20;;;;;;;9.35;100.00;99021.50;5093436;28;20070;-56
2023/10/27 01:57:04;;;;;;;0.20;0.20;;;;;;;9.37;100.00;99022.34;5093627;28;20104;-56
2023/10/27 01:59:29;;;;;;;0.20;0.20;;;;;;;9.34;100.00;99014.63;5092882;28;20086;-56
2023/10/27 02:01:55;;;;;;;0.30;0.30;;;;;;;9.34;100.00;99017.22;5093427;28;20031;-56
2023/10/27 02:04:20;;;;;;;0.20;0.20;;;;;;;9.34;100.00;99017.22;5093634;28;20068;-56
2023/10/27 02:06:47;;;;;;;0.30;0.30;;;;;;;9.35;100.00;99018.94;5092453;28;20399;-56
2023/10/27 02:09:12;;;;;;;0.30;0.30;;;;;;;9.37;100.00;99017.22;5093363;28;20027;-56
2023/10/27 02:11:37;;;;;;;0.20;0.20;;;;;;;9.35;100.00;99004.34;5092972;28;20036;-55
2023/10/27 02:14:02;;;;;;;0.30;0.30;;;;;;;9.36;100.00;99010.34;5092727;28;20039;-56
2023/10/27 02:16:28;;;;;;;0.30;0.30;;;;;;;9.37;100.00;99010.38;5093530;28;20032;-56
2023/10/27 02:18:53;;;;;;;0.30;0.30;;;;;;;9.37;100.00;99006.94;5092992;28;20028;-56
2023/10/27 02:21:19;;;;;;;0.30;0.30;;;;;;;9.35;100.00;98999.22;5092742;28;20052;-56
2023/10/27 02:23:44;;;;;;;0.20;0.20;;;;;;;9.35;100.00;99008.66;5092746;28;20016;-56
2023/10/27 02:26:09;;;;;;;0.22;0.22;;;;;;;9.32;100.00;98996.66;5093077;28;20031;-56
2023/10/27 02:28:37;;;;;;;0.20;0.20;;;;;;;9.32;100.00;98990.63;5092481;28;20430;-56
2023/10/27 02:31:02;;;;;;;0.30;0.30;;;;;;;9.31;100.00;98994.91;5093297;28;20020;-56
2023/10/27 02:33:27;;;;;;;0.20;0.20;;;;;;;9.31;100.00;98986.31;5093198;28;20036;-56
2023/10/27 02:35:53;;;;;;;0.20;0.20;;;;;;;9.32;100.00;98998.34;5092108;28;20044;-56
2023/10/27 02:38:18;;;;;;;0.20;0.20;;;;;;;9.31;100.00;98999.19;5093048;28;20468;-56
2023/10/27 02:40:43;;;;;;;0.30;0.30;;;;;;;9.30;100.00;98990.63;5092671;28;20472;-56
2023/10/27 02:43:11;;;;;;;0.22;0.22;;;;;;;9.29;100.00;98991.47;5092234;28;20024;-55
2023/10/27 02:45:36;;;;;;;0.30;0.30;;;;;;;9.35;100.00;98990.66;5092905;28;20108;-56
2023/10/27 02:48:01;;;;;;;0.30;0.30;;;;;;;9.31;100.00;98986.31;5092252;28;20103;-56
2023/10/27 02:50:27;;;;;;;0.30;0.30;;;;;;;9.32;100.00;98982.91;5093005;28;20418;-55
2023/10/27 02:52:52;;;;;;;0.22;0.22;;;;;;;9.31;100.00;98984.63;5092635;28;20020;-56
2023/10/27 02:55:18;;;;;;;0.25;0.25;;;;;;;9.29;100.00;98983.75;5092150;28;20020;-56
2023/10/27 02:57:43;;;;;;;0.30;0.30;;;;;;;9.30;100.00;98987.19;5092448;28;20040;-56
2023/10/27 03:00:09;;;;;;;0.20;0.20;;;;;;;9.29;100.00;98982.91;5092963;28;20047;-56
2023/10/27 03:02:34;;;;;;;0.30;0.30;;;;;;;9.30;100.00;98976.91;5092016;28;20391;-56
2023/10/27 03:05:00;;;;;;;0.20;0.20;;;;;;;9.28;100.00;98976.88;5092869;28;20020;-56
2023/10/27 03:07:25;;;;;;;0.30;0.30;;;;;;;9.30;100.00;98974.34;5092827;28;20028;-56
2023/10/27 03:09:50;;;;;;;0.25;0.25;;;;;;;9.32;100.00;98980.34;5091700;28;20024;-56
2023/10/27 03:12:16;;;;;;;0.30;0.30;;;;;;;9.30;100.00;98974.34;5092704;28;20024;-56
2023/10/27 03:14:42;;;;;;;0.30;0.30;;;;;;;9.29;100.00;98970.06;5092646;28;20070;-56
2023/10/27 03:17:07;;;;;;;0.30;0.30;;;;;;;9.31;100.00;98969.22;5091936;28;20077;-56
2023/10/27 03:19:32;;;;;;;0.20;0.20;;;;;;;9.30;100.00;98971.78;5092587;28;20032;-56
2023/10/27 03:21:57;;;;;;;0.20;0.20;;;;;;;9.31;100.00;98976.03;5092378;28;20055;-56
2023/10/27 03:24:23;;;;;;;0.20;0.20;;;;;;;9.33;100.00;98966.63;5091769;28;20028;-56
2023/10/27 03:26:48;;;;;;;0.30;0.30;;;;;;;9.33;100.00;98969.22;5092161;28;20092;-56
2023/10/27 03:29:14;;;;;;;0.30;0.30;;;;;;;9.30;100.00;98974.34;5092793;28;20028;-56
2023/10/27 03:31:39;;;;;;;0.30;0.30;;;;;;;9.29;100.00;98972.63;5102777;28;20089;-56
2023/10/27 03:34:05;;;;;;;0.30;0.30;;;;;;;9.27;100.00;98967.47;5113002;28;20027;-56
2023/10/27 03:36:30;;;;;;;0.30;0.30;;;;;;;9.26;100.00;98968.31;5116022;28;20022;-56
2023/10/27 03:38:55;;;;;;;0.30;0.30;;;;;;;9.25;100.00;98968.31;5115561;28;20032;-56
2023/10/27 03:41:21;;;;;;;0.30;0.30;;;;;;;9.23;100.00;98969.16;5116355;28;20043;-56
2023/10/27 03:43:47;;;;;;;0.20;0.20;;;;;;;9.25;100.00;98965.75;5116230;28;20092;-56
2023/10/27 03:46:12;;;;;;;0.30;0.30;;;;;;;9.26;100.00;98970.03;5115883;28;20024;-56
2023/10/27 03:48:37;;;;;;;0.20;0.20;;;;;;;9.25;100.00;98965.75;5116403;28;20494;-56
2023/10/27 03:51:05;;;;;;;0.20;0.20;;;;;;;9.23;100.00;98966.59;5116570;28;20023;-56
2023/10/27 03:53:32;;;;;;;0.30;0.30;;;;;;;9.22;100.00;98957.16;5115872;28;20031;-56
2023/10/27 03:55:57;;;;;;;0.30;0.30;;;;;;;9.23;100.00;98961.47;5116131;28;20506;-56
2023/10/27 03:58:22;;;;;;;0.20;0.20;;;;;;;9.22;100.00;98966.59;5115826;28;20036;-56
2023/10/27 04:00:47;;;;;;;0.20;0.20;;;;;;;9.22;100.00;98959.75;5116040;28;20024;-56
2023/10/27 04:03:13;;;;;;;0.20;0.20;;;;;;;9.24;100.00;98964.88;5116235;28;20019;-56
2023/10/27 04:05:38;;;;;;;0.30;0.30;;;;;;;9.25;100.00;98955.47;5115284;28;20023;-56
2023/10/27 04:08:07;;;;;;;0.20;0.20;;;;;;;9.26;100.00;98957.16;5116125;28;20390;-56
2023/10/27 04:10:34;;;;;;;0.25;0.25;;;;;;;9.22;100.00;98958.88;5116089;28;20061;-56
2023/10/27 04:12:59;;;;;;;0.30;0.30;;;;;;;9.21;100.00;98965.72;5115120;28;20538;-56
2023/10/27 04:15:26;;;;;;;0.28;0.28;;;;;;;9.21;100.00;98965.72;5116092;28;20104;-56
2023/10/27 04:17:51;;;;;;;0.20;0.20;;;;;;;9.22;100.00;98967.44;5115623;28;20023;-56
2023/10/27 04:20:16;;;;;;;0.30;0.30;;;;;;;9.21;100.00;98963.16;5115202;28;20046;-56
2023/10/27 04:22:42;;;;;;;0.20;0.20;;;;;;;9.20;100.00;98958.84;5115563;28;20019;-56
2023/10/27 04:25:08;;;;;;;0.20;0.20;;;;;;;9.18;100.00;98960.59;5115775;28;20031;-56
2023/10/27 04:27:34;;;;;;;0.25;0.25;;;;;;;9.16;100.00;98966.56;5115159;28;20069;-56
2023/10/27 04:29:59;;;;;;;0.20;0.20;;;;;;;9.15;100.00;98954.56;5115683;28;20024;-56
2023/10/27 04:32:26;;;;;;;0.30;0.30;;;;;;;9.15;100.00;98963.13;5115766;28;20019;-56
2023/10/27 04:34:51;;;;;;;0.30;0.30;;;;;;;9.15;100.00;98960.53;5114575;28;20069;-56
2023/10/27 04:37:17;;;;;;;0.30;0.30;;;;;;;9.13;100.00;98959.69;5115616;28;20020;-56
2023/10/27 04:39:42;;;;;;;0.30;0.30;;;;;;;9.14;100.00;98952.84;5115118;28;20494;-56
2023/10/27 04:42:08;;;;;;;0.30;0.30;;;;;;;9.14;100.00;98964.00;5114559;28;20040;-56
2023/10/27 04:44:33;;;;;;;0.20;0.20;;;;;;;9.15;100.00;98959.69;5115610;28;20031;-56
2023/10/27 04:46:58;;;;;;;0.20;0.20;;;;;;;9.15;100.00;98964.84;5114788;28;20038;-56
2023/10/27 04:49:26;;;;;;;0.20;0.20;;;;;;;9.14;100.00;98965.69;5114616;28;20035;-56
2023/10/27 04:51:51;;;;;;;0.20;0.20;;;;;;;9.14;100.00;98969.13;5114968;28;20016;-55
2023/10/27 04:54:16;;;;;;;0.30;0.30;;;;;;;9.14;100.00;98963.13;5115131;28;20035;-56
2023/10/27 04:56:43;;;;;;;0.22;0.22;;;;;;;9.13;100.00;98966.53;5114244;28;20370;-56
2023/10/27 04:59:08;;;;;;;0.20;0.20;;;;;;;9.13;100.00;98962.28;5115112;28;20474;-56
2023/10/27 05:01:34;;;;;;;0.22;0.22;;;;;;;9.12;100.00;98957.97;5114563;28;20039;-56
2023/10/27 05:03:59;;;;;;;0.30;0.30;;;;;;;9.15;100.00;98960.53;5115085;28;20019;-56
2023/10/27 05:06:25;;;;;;;0.28;0.28;;;;;;;9.16;100.00;98957.13;5114976;28;20481;-56
2023/10/27 05:08:50;;;;;;;0.22;0.22;;;;;;;9.16;100.00;98951.16;5113778;28;20038;-56
2023/10/27 05:11:17;;;;;;;0.30;0.30;;;;;;;9.16;100.00;98952.00;5114830;28;20016;-56
2023/10/27 05:13:42;;;;;;;0.30;0.30;;;;;;;9.17;100.00;98952.88;5114555;28;20421;-56
2023/10/27 05:16:07;;;;;;;0.25;0.25;;;;;;;9.12;100.00;98949.41;5114261;28;20016;-56
2023/10/27 05:18:33;;;;;;;0.30;0.30;;;;;;;9.11;100.00;98953.69;5114848;28;20467;-55
2023/10/27 05:20:58;;;;;;;0.30;0.30;;;;;;;9.13;100.00;98944.28;5114549;28;20107;-56
2023/10/27 05:23:23;;;;;;;0.20;0.20;;;;;;;9.12;100.00;98949.41;5113892;28;20026;-55
2023/10/27 05:25:49;;;;;;;0.30;0.30;;;;;;;9.10;100.00;98946.81;5114509;28;20589;-56
2023/10/27 05:28:14;;;;;;;0.30;0.30;;;;;;;9.07;100.00;98944.25;5114718;28;20027;-56
2023/10/27 05:30:43;;;;;;;0.30;0.30;;;;;;;9.04;100.00;98937.38;5113521;28;20463;-56
2023/10/27 05:33:09;;;;;;;0.30;0.30;;;;;;;9.02;100.00;98946.78;5114591;28;20027;-56
2023/10/27 05:35:34;;;;;;;0.20;0.20;;;;;;;9.04;100.00;98942.50;5114244;28;20023;-57
2023/10/27 05:37:59;;;;;;;0.30;0.30;;;;;;;9.05;100.00;98936.53;5113566;28;20028;-56
2023/10/27 05:40:25;;;;;;;0.20;0.20;;;;;;;9.02;100.00;98938.22;5114391;28;20043;-56
2023/10/27 05:42:50;;;;;;;0.20;0.20;;;;;;;9.00;100.00;98934.78;5113767;28;20043;-56
2023/10/27 05:45:16;;;;;;;0.20;0.20;;;;;;;8.99;100.00;98939.06;5113670;28;20031;-56
2023/10/27 05:47:41;;;;;;;0.30;0.30;;;;;;;8.99;100.00;98938.22;5113903;28;20364;-56
2023/10/27 05:50:08;;;;;;;0.30;0.30;;;;;;;8.99;100.00;98933.94;5114230;28;20026;-56
2023/10/27 05:52:33;;;;;;;0.30;0.30;;;;;;;9.03;100.00;98934.81;5113349;28;20034;-56
2023/10/27 05:54:59;;;;;;;0.20;0.20;;;;;;;9.02;100.00;98933.94;5114184;28;20019;-56
2023/10/27 05:57:24;;;;;;;0.22;0.22;;;;;;;9.05;100.00;98933.97;5113731;28;20098;-56
2023/10/27 05:59:49;;;;;;;0.30;0.30;;;;;;;9.08;100.00;98930.56;5112909;28;20149;-56
2023/10/27 06:02:15;;;;;;;0.30;0.30;;;;;;;9.05;100.00;98933.09;5113982;28;20031;-56
2023/10/27 06:04:40;;;;;;;0.20;0.20;;;;;;;9.03;100.00;98938.22;5113527;28;20042;-56
2023/10/27 06:07:05;;;;;;;0.20;0.20;;;;;;;9.01;100.00;98934.81;5112926;28;20459;-56
2023/10/27 06:09:31;;;;;;;0.30;0.30;;;;;;;9.01;100.00;98936.50;5114017;28;20028;-56
2023/10/27 06:11:57;;;;;;;0.20;0.20;;;;;;;9.02;100.00;98939.06;5113227;28;20032;-56
2023/10/27 06:14:23;;;;;;;0.20;0.20;;;;;;;9.02;100.00;98943.34;5113831;28;20024;-56
2023/10/27 06:16:48;;;;;;;0.20;0.20;;;;;;;9.05;100.00;98938.22;5113458;28;20036;-56
2023/10/27 06:19:13;;;;;;;0.20;0.20;;;;;;;9.05;100.00;98943.38;5113014;28;20019;-56
2023/10/27 06:21:39;;;;;;;0.20;0.20;;;;;;;9.12;100.00;98950.25;5113188;28;20491;-56
2023/10/27 06:24:07;;;;;;;0.20;0.20;;;;;;;9.05;100.00;98944.25;5113506;28;20031;-56
2023/10/27 06:26:32;;;;;;;0.20;0.20;;;;;;;9.05;100.00;98943.38;5112590;28;20019;-56
2023/10/27 06:28:57;;;;;;;0.30;0.30;;;;;;;9.05;100.00;98943.38;5113230;28;20038;-56
2023/10/27 06:31:23;;;;;;;0.30;0.30;;;;;;;9.07;100.00;98941.66;5113382;28;20028;-56
2023/10/27 06:33:48;;;;;;;0.30;0.30;;;;;;;9.06;100.00;98950.22;5112324;28;20022;-56
2023/10/27 06:36:13;;;;;;;0.20;0.20;;;;;;;9.05;100.00;98944.25;5113329;28;20030;-56
2023/10/27 06:38:38;;;;;;;0.20;0.20;;;;;;;9.07;100.00;98944.25;5112943;28;20028;-56
2023/10/27 06:41:04;;;;;;;0.20;0.20;;;;;;;9.07;100.00;98952.81;5112457;28;20086;-56
2023/10/27 06:43:30;;;;;;;0.30;0.30;;;;;;;9.05;100.00;98953.63;5113394;28;20072;-56
2023/10/27 06:45:55;;;;;;;0.20;0.20;;;;;;;9.07;100.00;98957.09;5113097;28;20028;-56
2023/10/27 06:48:21;;;;;;;0.20;0.20;;;;;;;9.06;100.00;98951.09;5112376;28;20050;-56
2023/10/27 06:50:46;;;;;;;0.20;0.20;;;;;;;9.09;100.00;98957.97;5112945;28;20024;-56
2023/10/27 06:53:11;;;;;;;0.30;0.30;;;;;;;9.10;100.00;98957.09;5113415;28;20369;-56
2023/10/27 06:55:37;;;;;;;0.28;0.28;;;;;;;9.09;100.00;98959.66;5112309;28;20027;-56
2023/10/27 06:58:04;;;;;;;0.20;0.20;;;;;;;9.12;100.00;98960.53;5113246;28;20386;-56
2023/10/27 07:00:30;;;;;;;0.30;0.30;;;;;;;9.15;100.00;98965.69;5113137;28;20064;-56
2023/10/27 07:02:55;;;;;;;0.30;0.30;;;;;;;9.16;100.00;98972.56;5112159;28;20085;-55
2023/10/27 07:05:21;;;;;;;0.20;0.20;;;;;;;9.15;100.00;98965.69;5113064;28;20059;-56
2023/10/27 07:07:47;;;;;;;0.30;0.30;;;;;;;9.16;100.00;98972.56;5112480;28;20087;-55
2023/10/27 07:10:12;;;;;;;0.30;0.30;;;;;;;9.16;100.00;98977.69;5114954;28;20490;-56
2023/10/27 07:12:38;;;;;;;0.20;0.20;;;;;;;9.17;100.00;98979.41;5116966;28;20030;-56
2023/10/27 07:15:03;;;;;;;0.20;0.20;;;;;;;9.16;100.00;98980.25;5117203;28;20375;-56
2023/10/27 07:17:29;;;;;;;0.20;0.20;;;;;;;9.16;100.00;98982.84;5116511;28;20028;-56
2023/10/27 07:19:54;;;;;;;0.20;0.20;;;;;;;9.17;100.00;98983.72;5116707;28;20032;-56
2023/10/27 07:22:20;;;;;;;0.20;0.20;;;;;;;9.21;100.00;98990.56;5116200;28;20039;-56
2023/10/27 07:24:48;;;;;;;0.20;0.20;;;;;;;9.23;100.00;98988.84;5116868;28;20020;-56
2023/10/27 07:27:14;;;;;;;0.20;0.20;;;;;;;9.27;100.00;98984.59;5117347;28;20069;-56
2023/10/27 07:29:39;;;;;;;0.30;0.30;;;;;;;9.29;100.00;98985.47;5115885;28;20108;-56
2023/10/27 07:32:05;;;;;;;0.20;0.20;;;;;;;9.30;100.00;98979.50;5116765;28;20024;-56
2023/10/27 07:34:30;;;;;;;0.17;0.17;;;;;;;9.33;100.00;98989.78;5116754;28;20024;-56
2023/10/27 07:36:56;;;;;;;0.25;0.25;;;;;;;9.34;100.00;98988.94;5115717;28;20483;-57
2023/10/27 07:39:22;;;;;;;0.20;0.20;;;;;;;9.35;100.00;98993.22;5116662;28;20492;-56
2023/10/27 07:41:48;;;;;;;0.20;0.20;;;;;;;9.41;100.00;98993.22;5116202;28;20044;-56
2023/10/27 07:44:13;;;;;;;0.30;0.30;;;;;;;9.40;100.00;98996.69;5115972;28;20028;-56
2023/10/27 07:46:38;;;;;;;0.20;0.20;;;;;;;9.42;100.00;99000.09;5116206;28;20401;-56
2023/10/27 07:49:04;;;;;;;0.20;0.20;;;;;;;9.42;100.00;99005.25;5116535;28;20052;-56
2023/10/27 07:51:29;;;;;;;0.20;0.20;;;;;;;9.49;100.00;99004.44;5115599;28;20085;-56
2023/10/27 07:53:54;;;;;;;0.20;0.20;;;;;;;9.50;100.00;99006.16;5116289;28;20097;-56
2023/10/27 07:56:20;;;;;;;0.20;0.20;;;;;;;9.55;100.00;99012.16;5116260;28;20469;-56
2023/10/27 07:58:45;;;;;;;0.20;0.20;;;;;;;9.50;100.00;99007.84;5115356;28;20524;-56
2023/10/27 08:01:11;;;;;;;0.20;0.20;;;;;;;9.49;100.00;99012.13;5116397;28;20024;-56
2023/10/27 08:03:38;;;;;;;0.20;0.20;;;;;;;9.55;100.00;99009.59;5115843;28;20032;-56
2023/10/27 08:06:09;;;;;;;0.20;0.20;;;;;;;9.61;100.00;99015.63;5115532;28;20073;-56
2023/10/27 08:08:37;;;;;;;0.20;0.20;;;;;;;9.62;100.00;99017.31;5115867;28;20319;-56
2023/10/27 08:11:04;;;;;;;;;;;;;;;9.80;100.00;99016.53;5116628;28;20031;-56
2023/10/27 08:13:29;;;;;;;0.20;0.20;;;;;;;9.65;100.00;99017.34;5115481;28;19994;-56
2023/10/27 08:15:56;;;;;;;0.20;0.20;;;;;;;9.59;100.00;99009.59;5115625;28;20103;-56
2023/10/27 08:18:21;;;;;;;0.30;0.30;;;;;;;9.56;100.00;99001.00;5115836;28;20106;-56
2023/10/27 08:20:47;;;;;;;0.20;0.20;;;;;;;9.53;100.00;98998.44;5114121;28;20030;-56
2023/10/27 08:23:13;;;;;;;0.20;0.20;;;;;;;9.53;100.00;99003.56;5115992;28;20050;-56
2023/10/27 08:25:38;;;;;;;0.15;0.15;;;;;;;9.55;100.00;99003.56;5114733;28;20024;-56
2023/10/27 08:28:04;;;;;;;0.20;0.20;;;;;;;9.50;100.00;99013.88;5115902;28;20019;-56
2023/10/27 08:30:29;;;;;;;0.20;0.20;;;;;;;9.50;100.00;99018.13;5115746;28;20035;-56
2023/10/27 08:32:55;;;;;;;0.20;0.20;;;;;;;9.51;100.00;99023.28;5114643;28;20026;-56
2023/10/27 08:35:20;;;;;;;0.20;0.20;;;;;;;9.52;100.00;99027.56;5115735;28;20360;-56
2023/10/27 08:37:46;;;;;;;0.20;0.20;;;;;;;9.50;100.00;99044.72;5115174;28;20024;-56
2023/10/27 08:40:12;;;;;;;0.20;0.20;;;;;;;9.52;100.00;99048.13;5114899;28;20026;-56
2023/10/27 08:42:40;;;;;;;0.20;0.20;;;;;;;9.52;100.00;99050.72;5114968;28;20114;-56
2023/10/27 08:45:05;;;;;;;;;;;;;;;9.66;100.00;99047.38;5115832;28;20084;-56
2023/10/27 08:47:34;;;;;;;0.30;0.30;;;;;;;9.51;100.00;99045.56;5114470;28;19911;-56
2023/10/27 08:50:00;;;;;;;0.20;0.20;;;;;;;9.55;100.00;99045.59;5115389;28;20409;-56
2023/10/27 08:52:27;;;;;;;0.20;0.20;;;;;;;9.52;100.00;99049.88;5115402;28;20102;-56
2023/10/27 08:54:52;;;;;;;0.20;0.20;;;;;;;9.55;100.00;99044.72;5114228;28;20027;-55
2023/10/27 08:57:18;;;;;;;0.30;0.30;;;;;;;9.55;100.00;99048.19;5115310;28;20028;-56
2023/10/27 08:59:43;;;;;;;0.17;0.17;;;;;;;9.54;100.00;99049.03;5114776;28;20028;-56
2023/10/27 09:02:09;;;;;;;0.20;0.20;;;;;;;9.53;100.00;99047.31;5114423;28;20043;-56
2023/10/27 09:04:42;;;;;;;0.20;0.20;;;;;;;9.53;100.00;99043.88;5114977;28;20114;-56
2023/10/27 09:07:07;;;;;;;0.20;0.20;;;;;;;9.56;100.00;99049.88;5115110;28;20027;-56
2023/10/27 09:09:32;;;;;;;0.30;0.30;;;;;;;9.58;100.00;99046.44;5114493;28;20034;-56
2023/10/27 09:11:58;;;;;;;0.15;0.15;;;;;;;9.60;100.00;99055.03;5114707;28;20095;-56
2023/10/27 09:14:27;;;;;;;0.20;0.20;;;;;;;9.60;100.00;99055.03;5114840;28;20026;-56
2023/10/27 09:17:05;;;;;;;0.20;0.20;;;;;;;9.64;100.00;99056.78;5113760;28;20020;-55
2023/10/27 09:19:32;;;;;;;0.20;0.20;;;;;;;9.65;100.00;99058.50;5114973;28;20020;-56
2023/10/27 09:21:58;;;;;;;0.20;0.20;;;;;;;9.69;100.00;99060.22;5113835;28;20023;-56
2023/10/27 09:24:25;;;;;;;0.30;0.30;;;;;;;9.70;100.00;99069.66;5114852;28;20028;-56
2023/10/27 09:26:51;;;;;;;0.30;0.30;;;;;;;9.70;100.00;99049.09;5114394;28;20023;-56
2023/10/27 09:29:17;;;;;;;0.20;0.20;;;;;;;9.71;100.00;99048.25;5113824;28;20061;-56
2023/10/27 09:31:45;;;;;;;0.20;0.20;;;;;;;9.79;100.00;99051.69;5114128;28;20055;-56
2023/10/27 09:34:15;;;;;;;0.20;0.20;;;;;;;9.86;100.00;99060.28;5113574;28;20077;-56
2023/10/27 09:36:42;;;;;;;0.20;0.20;;;;;;;9.89;100.00;99062.91;5113340;28;20102;-56
2023/10/27 09:39:09;;;;;;;0.20;0.20;;;;;;;9.86;100.00;99068.00;5114295;28;20082;-56
2023/10/27 09:41:37;;;;;;;0.20;0.20;;;;;;;9.94;100.00;99063.78;5114064;28;20075;-56
2023/10/27 09:44:03;;;;;;;0.20;0.20;;;;;;;9.97;100.00;99060.34;5113486;28;20055;-55
2023/10/27 09:46:30;;;;;;;0.20;0.20;;;;;;;10.06;100.00;99065.53;5114293;28;20023;-56
2023/10/27 09:48:58;;;;;;;0.27;0.27;;;;;;;10.09;100.00;99047.50;5113925;28;20047;-56
2023/10/27 09:51:26;;;;;;;0.20;0.20;;;;;;;10.13;100.00;99061.25;5113501;28;20261;-56
2023/10/27 09:53:53;;;;;;;0.20;0.20;;;;;;;10.12;100.00;99075.84;5113720;28;20548;-56
2023/10/27 09:56:19;;;;;;;0.20;0.20;;;;;;;10.15;100.00;99070.69;5113990;28;20024;-56
2023/10/27 09:58:45;;;;;;;0.20;0.20;;;;;;;10.14;100.00;99058.66;5113148;28;20053;-56
2023/10/27 10:01:10;;;;;;;0.20;0.20;;;;;;;10.15;100.00;99051.81;5114051;28;20019;-56
2023/10/27 10:03:41;;;;;;;0.20;0.20;;;;;;;10.16;100.00;99054.38;5113672;28;20042;-56
2023/10/27 10:06:12;;;;;;;0.20;0.20;;;;;;;10.26;100.00;99049.25;5113081;28;20032;-56
2023/10/27 10:08:38;;;;;;;0.17;0.17;;;;;;;10.28;100.00;99039.81;5113456;28;20030;-56
2023/10/27 10:11:12;;;;;;;0.20;0.20;;;;;;;10.39;100.00;99048.44;5112972;28;20028;-56
2023/10/27 10:13:38;;;;;;;0.20;0.20;;;;;;;10.47;100.00;99056.16;5113380;28;20395;-56
2023/10/27 10:16:04;;;;;;;0.20;0.20;;;;;;;10.46;100.00;99055.31;5113908;28;20027;-56
2023/10/27 10:18:33;;;;;;;0.20;0.20;;;;;;;10.49;100.00;99063.03;5112871;28;20544;-55
2023/10/27 10:20:58;;;;;;;0.20;0.20;;;;;;;10.49;100.00;99065.63;5113240;28;20020;-56
2023/10/27 10:23:40;;;;;;;0.20;0.20;;;;;;;10.56;100.00;99083.66;5113524;28;20032;-56
2023/10/27 10:26:06;;;;;;;0.20;0.20;;;;;;;10.45;100.00;99075.94;5112866;28;20032;-56
2023/10/27 10:28:36;;;;;;;0.20;0.20;;;;;;;10.37;100.00;99073.34;5113702;28;20099;-55
2023/10/27 10:31:10;;;;;;;0.20;0.20;;;;;;;10.36;100.00;99080.19;5113637;28;20012;-56
2023/10/27 10:33:44;;;;;;;0.20;0.20;;;;;;;10.29;100.00;99075.88;5112271;28;20489;-55
2023/10/27 10:36:22;;;;;;;0.20;0.20;;;;;;;10.29;100.00;99087.88;5113631;28;20020;-56
2023/10/27 10:38:50;;;;;;;0.20;0.20;;;;;;;10.28;100.00;99075.88;5113342;28;20027;-56
2023/10/27 10:41:17;;;;;;;0.20;0.20;;;;;;;10.26;100.00;99077.56;5112575;28;20043;-56
2023/10/27 10:43:43;;;;;;;0.20;0.20;;;;;;;10.24;100.00;99082.72;5112691;28;20375;-56
2023/10/27 10:46:13;;;;;;;0.20;0.20;;;;;;;10.23;100.00;99088.72;5112475;28;20020;-56
2023/10/27 10:48:45;;;;;;;0.20;0.20;;;;;;;10.20;100.00;99083.59;5112852;28;20031;-56
2023/10/27 10:51:15;;;;;;;0.20;0.20;;;;;;;10.10;100.00;99092.13;5113368;28;20085;-56
2023/10/27 10:53:52;;;;;;;0.20;0.20;;;;;;;10.07;100.00;99086.94;5112268;28;20024;-56
2023/10/27 10:56:17;;;;;;;0.20;0.20;;;;;;;10.08;100.00;99086.94;5113263;28;20077;-56
2023/10/27 10:58:43;;;;;;;0.20;0.20;;;;;;;10.06;100.00;99088.69;5112757;28;20414;-56
2023/10/27 11:01:19;;;;;;;0.20;0.20;;;;;;;10.01;100.00;99082.66;5112652;28;20031;-56
2023/10/27 11:03:52;;;;;;;0.20;0.20;;;;;;;10.05;100.00;99076.66;5113147;28;20133;-56
2023/10/27 11:06:22;;;;;;;0.20;0.20;;;;;;;10.03;100.00;99079.25;5113125;28;20031;-56
2023/10/27 11:08:47;;;;;;;0.20;0.20;;;;;;;10.00;100.00;99078.34;5112003;28;20112;-56
2023/10/27 11:11:13;;;;;;;0.20;0.20;;;;;;;10.03;100.00;99075.78;5112964;28;20489;-56
2023/10/27 11:13:56;;;;;;;0.30;0.30;;;;;;;10.00;100.00;99070.63;5112886;28;20124;-56
2023/10/27 11:16:23;;;;;;;0.20;0.20;;;;;;;10.04;100.00;99065.53;5112361;28;20031;-55
2023/10/27 11:19:05;;;;;;;0.20;0.20;;;;;;;10.06;100.00;99070.66;5112627;28;20046;-56
2023/10/27 11:21:33;;;;;;;0.20;0.20;;;;;;;10.06;100.00;99070.66;5112080;28;20348;-56
2023/10/27 11:24:06;;;;;;;0.20;0.20;;;;;;;10.10;100.00;99077.53;5112448;28;20417;-56
2023/10/27 11:26:38;;;;;;;0.20;0.20;;;;;;;10.12;100.00;99075.84;5112967;28;20069;-55